x

N01 - Northeast Channel (44024) Wave Buoy

11:04pm - Sat 6th Feb 2016 All times are AST. -4 hours from GMT.

  • Sig Wave height 4.9ft
  • Peak Period 11s
  • Wind
    16mph, 20mph gusts
  • Sea Temp 40°f
  • Air Temp 38°f
  • Sea Pressure 1025.3mb
  • N01 - Northeast Channel
  • N01 - Northeast Channel

More Historic Weather Station data

Upgrade to MSW Pro to gain access to the past 30 days of data for over 8000 Wavebouys and Weather Stations around the globe.

Join Pro

Comparision Forecast

View Surf forecast
   
Sat 02/06 11:04pm 5ft 11s 16 20 mph 1025.3mb 40f 38f
10:04pm 5ft 11s 16 18 mph 1025.7mb 40f 38f
9:04pm 5ft 11s 11 16 mph 1026.2mb 40f 37f
8:04pm 5ft 8s 11 13 mph 1026.4mb 40f 36f
7:04pm 6.5ft 11s 13 16 mph 1026.8mb 40f 36f
4:04pm 7ft 8s 9 13 mph 1026.3mb 40f 35f
3:04pm 8ft 6s 9 11 mph 1026.3mb 40f 35f
12:04pm  -   -  16 20 mph 1026.6mb - 32f
11:04am 12ft 11s 13 18 mph 1026.5mb 40f 32f
10:04am 12ft 8s 16 20 mph 1025.9mb 40f 32f
9:04am 13ft 8s 20 22 mph 1024.7mb 40f 32f
8:04am 14ft 11s 20 27 mph 1023.3mb 40f 32f
7:04am 15ft 11s 22 29 mph 1022.4mb 40f 32f
6:04am 14.5ft 11s 25 31 mph 1021.3mb 40f 32f
4:04am 15.5ft 11s 31 40 mph 1018.9mb 41f 33f
3:04am  -   -  29 40 mph 1017.7mb 41f 33f
2:04am 21ft 11s 34 40 mph 1015.8mb 41f 34f
1:04am 21.5ft 11s 34 43 mph 1014mb 41f 35f
12:04am 20.5ft 11s 36 45 mph - 41f 35f
Fri 02/05 11:04pm  -   -  43 51 mph 1008.8mb - 36f
10:04pm 17.5ft 8s 40 49 mph 1005.7mb 41f 36f
8:04pm 11.5ft 11s 25 34 mph 998.6mb 41f 38f
7:04pm 11.5ft 11s 31 40 mph 1000mb 41f 39f
6:04pm 10.5ft 8s  -  mph - 40f -
4:04pm 10ft 8s 25 29 mph 1000.6mb 40f 50f
1:04pm 9ft 8s 22 25 mph 1005.7mb 41f 49f
11:04am 8.5ft 8s 13 18 mph 1009.3mb 41f 48f
8:04am 7.5ft 11s 11 13 mph 1011.8mb 41f 41f
7:04am 7ft 11s 9 13 mph 1012.5mb 41f 41f
6:04am 9.5ft 11s 9 11 mph 1012.8mb 41f 42f
5:04am 9.5ft 11s 7 9 mph 1014mb 40f 41f
4:04am 10ft 11s 7 9 mph 1014.7mb 40f 41f
3:04am 9.5ft 11s 4 7 mph 1015.4mb 40f 42f
1:04am  -   -  4 7 mph 1015.6mb - 41f
12:04am 8ft 8s 7 9 mph 1016.4mb 40f 42f
Thu 02/04 11:04pm 7ft 8s 4 7 mph 1016.1mb 40f 42f
10:04pm 8.5ft 8s 7 9 mph 1016.5mb 40f 43f
9:04pm 8ft 8s 7 9 mph 1016.4mb 40f 43f
7:04pm 9.5ft 8s 9
mph
1015.8mb 40f 44f
5:04pm 9ft 8s 13 16 mph 1014.5mb 40f 47f
4:04pm 10.5ft 8s 22 29 mph 1013mb 40f 49f
3:04pm 9ft 8s 20 25 mph 1013.2mb 40f 48f
1:04pm 10ft 8s 25 29 mph 1014.2mb 40f 49f
12:04pm 10ft 8s 25 29 mph 1015mb 40f 49f
11:04am 10ft 8s 25 29 mph 1015.9mb 40f 49f
10:04am 10ft 8s 25 29 mph 1016.5mb 40f 49f
8:04am 10.5ft 8s 29 38 mph 1015.9mb 40f 49f
7:04am 9ft 8s  -  mph - 40f -
3:04am 8.5ft 8s 22 25 mph 1018mb 40f 47f
1:04am 7.5ft 6s 22 27 mph 1019.4mb 40f 46f
12:04am 7ft 8s 20 25 mph 1020.5mb 40f 46f
Wed 02/03 11:04pm 7ft 6s 22 27 mph 1020.9mb 40f 46f
10:04pm 5.5ft 6s 25 31 mph 1021.4mb 40f 46f
8:04pm 3ft 5s 20 22 mph 1023.9mb 40f 45f
7:04pm 2.5ft 4s 16 20 mph 1024.6mb 40f 44f
6:04pm 2.5ft 3s 16
mph
1024.3mb 39f 43f
4:04pm 2.5ft 5s 11 13 mph 1025.7mb 40f 42f
3:04pm 2.5ft 4s 11 13 mph 1026.4mb 40f 41f
2:04pm 3ft 4s 11
mph
1027.8mb 40f 40f
1:04pm 2.5ft 5s 13 16 mph 1029.2mb 40f 39f
11:04am 2.5ft 4s 16 18 mph 1031mb 39f 36f
9:04am 1.6ft 4s 16 20 mph 1032.3mb 40f 35f
8:04am 3.5ft 11s 13 16 mph 1032.9mb 40f 35f
7:04am 2ft 5s 16 20 mph 1031.6mb 40f 35f
6:04am 2.5ft 5s 16 18 mph 1030.9mb 39f 35f
5:04am 3.5ft 11s 11 16 mph 1031.6mb 39f 35f